Time;durP1;ratioP1;P1;durP2;ratioP2;P2;SDS_P1;SDS_P2;PMS_P1;PMS_P2;Temp;Humidity;BMP_temperature;BMP_pressure;BME280_temperature;BME280_humidity;BME280_pressure;Samples;Min_cycle;Max_cycle;Signal;HPM_P1;HPM_P2
2022/07/14 00:00:12;;;;;;;3.67;1.40;;;;;;;19.11;51.31;97367.22;4783541;29;20748;-69
2022/07/14 00:02:39;;;;;;;3.17;1.50;;;;;;;19.09;50.80;97348.09;4783388;29;20237;-69
2022/07/14 00:05:07;;;;;;;3.83;1.80;;;;;;;19.31;50.33;97375.25;4783859;29;20818;-69
2022/07/14 00:07:34;;;;;;;2.00;1.70;;;;;;;19.27;50.54;97367.72;4783274;29;20719;-69
2022/07/14 00:10:01;;;;;;;2.10;1.40;;;;;;;19.23;50.56;97364.50;4784274;29;20206;-69
2022/07/14 00:12:28;;;;;;;2.10;1.30;;;;;;;19.20;50.46;97362.13;4783283;29;20692;-69
2022/07/14 00:14:55;;;;;;;1.70;1.60;;;;;;;19.32;50.18;97381.38;4782199;29;20716;-69
2022/07/14 00:17:22;;;;;;;2.13;1.60;;;;;;;19.46;49.39;97374.16;4781992;29;20265;-69
2022/07/14 00:19:49;;;;;;;1.73;1.57;;;;;;;19.61;49.15;97372.16;4783355;30;20718;-69
2022/07/14 00:22:16;;;;;;;1.60;1.50;;;;;;;19.80;49.33;97371.56;4784007;29;20217;-69
2022/07/14 00:24:43;;;;;;;1.93;1.50;;;;;;;19.96;48.70;97382.56;4783583;29;20203;-69
2022/07/14 00:27:10;;;;;;;1.77;1.67;;;;;;;20.00;47.86;97365.59;4783594;29;20218;-69
2022/07/14 00:29:37;;;;;;;2.13;1.83;;;;;;;19.99;47.71;97377.91;4782960;30;20211;-68
2022/07/14 00:32:06;;;;;;;1.60;1.50;;;;;;;19.79;48.87;97373.34;4783334;29;20314;-69
2022/07/14 00:34:33;;;;;;;3.60;1.80;;;;;;;19.73;49.76;97368.56;4783102;29;20702;-69
2022/07/14 00:37:00;;;;;;;2.60;1.60;;;;;;;19.79;49.44;97369.88;4781831;29;20199;-69
2022/07/14 00:39:54;;;;;;;2.80;1.50;;;;;;;19.78;49.70;97368.22;4783273;30;20203;-69
2022/07/14 00:42:27;;;;;;;2.03;1.80;;;;;;;19.55;49.85;97370.00;4782525;30;20293;-69
2022/07/14 00:44:54;;;;;;;2.07;1.50;;;;;;;19.32;50.16;97365.59;4783033;29;20217;-69
2022/07/14 00:47:21;;;;;;;1.63;1.53;;;;;;;19.31;50.12;97374.41;4782676;29;20207;-69
2022/07/14 00:49:52;;;;;;;2.33;1.67;;;;;;;19.23;51.01;97363.66;4782802;29;20236;-68
2022/07/14 00:52:20;;;;;;;2.73;1.63;;;;;;;19.32;50.79;97366.44;4783003;29;20242;-69
2022/07/14 00:54:47;;;;;;;1.57;1.47;;;;;;;19.37;50.27;97366.97;4766442;30;20215;-69
2022/07/14 00:57:15;;;;;;;2.03;1.83;;;;;;;19.37;50.70;97368.78;4781684;29;20604;-69
2022/07/14 00:59:42;;;;;;;2.50;1.50;;;;;;;19.40;50.36;97366.75;4782758;30;20210;-69
2022/07/14 01:02:09;;;;;;;1.80;1.43;;;;;;;19.57;50.40;97368.09;4783110;29;20227;-69
2022/07/14 01:04:37;;;;;;;3.67;1.50;;;;;;;19.57;50.21;97362.84;4782445;29;20213;-69
2022/07/14 01:07:04;;;;;;;2.67;1.60;;;;;;;19.55;50.13;97366.53;4782369;29;20209;-69
2022/07/14 01:09:31;;;;;;;4.17;2.13;;;;;;;19.30;50.70;97364.88;4782557;29;20687;-69
2022/07/14 01:11:58;;;;;;;4.73;1.90;;;;;;;19.60;50.29;97367.03;4782283;29;20235;-69
2022/07/14 01:14:26;;;;;;;4.10;2.30;;;;;;;19.64;50.50;97361.38;4780819;29;20267;-69
2022/07/14 01:16:55;;;;;;;3.07;1.80;;;;;;;19.69;50.09;97367.13;4781958;29;20742;-70
2022/07/14 01:19:23;;;;;;;5.17;2.00;;;;;;;19.74;50.55;97366.78;4766129;29;20204;-69
2022/07/14 01:21:54;;;;;;;3.27;1.90;;;;;;;19.62;50.11;97367.75;4782257;29;20212;-69
2022/07/14 01:24:22;;;;;;;5.50;2.00;;;;;;;19.45;50.30;97354.06;4782419;29;20290;-69
2022/07/14 01:26:51;;;;;;;2.60;1.83;;;;;;;19.36;50.72;97369.72;4766482;30;20644;-69
2022/07/14 01:29:19;;;;;;;4.00;1.90;;;;;;;18.93;51.73;97369.44;4780849;29;20712;-69
2022/07/14 01:31:46;;;;;;;1.80;1.70;;;;;;;18.82;52.11;97366.75;4782284;29;20262;-69
2022/07/14 01:34:13;;;;;;;2.13;1.77;;;;;;;18.56;52.70;97359.94;4782094;29;20274;-69
2022/07/14 01:36:40;;;;;;;2.27;1.57;;;;;;;18.28;53.49;97373.34;4782126;29;21017;-69
2022/07/14 01:39:07;;;;;;;3.63;2.30;;;;;;;17.91;54.24;97353.28;4766066;29;20330;-69
2022/07/14 01:41:35;;;;;;;2.93;1.93;;;;;;;17.74;54.74;97355.25;4782083;29;20212;-68
2022/07/14 01:44:03;;;;;;;3.97;2.50;;;;;;;17.71;55.06;97360.72;4781045;30;20206;-69
2022/07/14 01:46:30;;;;;;;2.17;1.80;;;;;;;17.89;54.56;97358.59;4781709;29;20293;-68
2022/07/14 01:48:57;;;;;;;3.80;1.70;;;;;;;18.16;54.03;97363.69;4766382;30;20230;-68
2022/07/14 01:51:26;;;;;;;4.43;1.80;;;;;;;18.05;54.10;97363.63;4765830;30;20236;-69
2022/07/14 01:53:53;;;;;;;1.60;1.50;;;;;;;18.29;53.65;97365.34;4766004;30;20197;-69
2022/07/14 01:56:22;;;;;;;1.90;1.80;;;;;;;18.35;53.26;97361.44;4765831;30;20244;-69
2022/07/14 01:58:51;;;;;;;2.47;1.77;;;;;;;18.52;53.52;97361.09;4765824;30;20601;-69
2022/07/14 02:04:05;;;;;;;1.70;1.60;;;;;;;18.85;52.44;97365.69;4781729;29;20216;-69
2022/07/14 02:06:32;;;;;;;1.77;1.50;;;;;;;18.87;52.13;97372.50;4782363;30;20210;-69
2022/07/14 02:09:00;;;;;;;1.73;1.43;;;;;;;18.70;53.00;97365.00;4765599;29;20312;-71
2022/07/14 02:14:20;;;;;;;2.93;2.00;;;;;;;18.85;52.54;97376.19;4782123;29;20211;-69
2022/07/14 02:16:47;;;;;;;6.23;2.33;;;;;;;18.67;52.81;97362.59;4781526;29;20610;-69
2022/07/14 02:19:14;;;;;;;3.73;2.23;;;;;;;18.76;52.76;97372.44;4782123;30;20217;-69
2022/07/14 02:21:42;;;;;;;3.80;2.57;;;;;;;18.85;52.13;97376.19;4781707;30;20679;-69
2022/07/14 02:24:10;;;;;;;5.50;3.00;;;;;;;18.78;52.44;97370.53;4781011;29;20610;-69
2022/07/14 02:26:39;;;;;;;3.43;1.97;;;;;;;18.74;53.11;97379.59;4784028;29;20715;-69
2022/07/14 02:29:06;;;;;;;8.23;4.67;;;;;;;18.05;54.36;97380.19;4769019;30;20206;-69
2022/07/14 02:31:34;;;;;;;6.90;4.27;;;;;;;18.00;54.63;97379.66;4769626;30;20238;-69
2022/07/14 02:34:03;;;;;;;8.90;4.77;;;;;;;18.15;54.07;97388.25;4785163;29;20209;-69
2022/07/14 02:36:30;;;;;;;5.97;4.03;;;;;;;18.26;53.85;97388.34;4785291;29;20225;-69
2022/07/14 02:38:59;;;;;;;7.70;3.80;;;;;;;18.46;53.53;97385.16;4769260;30;20220;-68
2022/07/14 02:41:26;;;;;;;7.80;3.80;;;;;;;18.52;53.13;97396.06;4769074;30;20223;-69
2022/07/14 02:43:53;;;;;;;10.00;4.47;;;;;;;18.58;53.30;97395.63;4769025;30;20745;-69
2022/07/14 02:46:20;;;;;;;11.53;5.67;;;;;;;18.64;53.01;97410.06;4768748;30;20191;-69
2022/07/14 02:48:48;;;;;;;10.70;5.33;;;;;;;18.68;53.19;97399.25;4784185;29;20678;-69
2022/07/14 02:51:16;;;;;;;13.47;5.20;;;;;;;18.43;53.78;97406.31;4768569;30;20238;-69
2022/07/14 02:53:44;;;;;;;11.93;5.50;;;;;;;18.49;53.67;97403.28;4768833;30;20338;-69
2022/07/14 02:56:12;;;;;;;8.97;4.80;;;;;;;17.98;55.07;97396.44;4783444;29;20202;-69
2022/07/14 02:58:39;;;;;;;11.80;4.80;;;;;;;18.08;54.94;97406.19;4783490;29;20206;-69
2022/07/14 03:01:08;;;;;;;12.50;6.00;;;;;;;18.24;54.59;97405.94;4768616;29;20209;-69
2022/07/14 03:03:37;;;;;;;8.97;4.93;;;;;;;18.46;54.05;97406.16;4784426;29;20217;-68
2022/07/14 03:06:14;;;;;;;8.47;4.10;;;;;;;18.59;53.26;97412.16;4783721;29;20346;-69
2022/07/14 03:08:44;;;;;;;7.37;3.77;;;;;;;18.76;52.91;97413.56;4783057;29;20298;-69
2022/07/14 03:11:11;;;;;;;7.80;3.70;;;;;;;18.75;52.93;97420.63;4783158;29;20588;-69
2022/07/14 03:13:39;;;;;;;6.73;4.10;;;;;;;18.59;52.70;97425.28;4768265;30;20222;-69
2022/07/14 03:16:09;;;;;;;10.17;4.30;;;;;;;18.46;53.64;97400.91;4782844;30;20245;-69
2022/07/14 03:18:40;;;;;;;8.40;4.23;;;;;;;18.61;53.05;97413.75;4783311;29;20270;-68
2022/07/14 03:21:11;;;;;;;8.47;5.37;;;;;;;18.63;53.10;97413.63;4784487;29;20206;-69
2022/07/14 03:23:44;;;;;;;8.13;4.43;;;;;;;18.64;53.24;97410.91;4768579;29;20300;-68
2022/07/14 03:26:16;;;;;;;7.10;3.30;;;;;;;18.35;53.26;97416.50;4783107;29;20218;-69
2022/07/14 03:28:43;;;;;;;7.47;3.77;;;;;;;18.33;53.41;97402.66;4782656;29;20319;-69
2022/07/14 03:31:11;;;;;;;8.53;3.30;;;;;;;18.13;54.28;97411.09;4769011;29;20233;-69
2022/07/14 03:33:39;;;;;;;3.90;3.33;;;;;;;17.99;54.65;97406.81;4791707;29;20247;-69
2022/07/14 03:36:06;;;;;;;6.93;2.80;;;;;;;18.17;54.33;97420.44;4769570;29;20227;-68
2022/07/14 03:38:35;;;;;;;5.33;2.93;;;;;;;18.21;53.66;97407.00;4767739;29;20728;-69
2022/07/14 03:41:06;;;;;;;6.07;3.20;;;;;;;17.93;54.56;97399.38;4768069;29;20218;-69
2022/07/14 03:43:35;;;;;;;8.33;2.90;;;;;;;18.25;53.89;97405.00;4772197;29;20201;-69
2022/07/14 03:46:04;;;;;;;5.63;2.60;;;;;;;18.60;53.14;97416.47;4767627;29;20206;-69
2022/07/14 03:48:34;;;;;;;7.63;4.20;;;;;;;18.49;53.25;97419.03;4782519;29;20216;-68
2022/07/14 03:51:03;;;;;;;5.97;4.70;;;;;;;18.67;52.43;97423.78;4767681;29;20214;-67
2022/07/14 03:53:32;;;;;;;7.10;3.30;;;;;;;19.14;51.23;97424.75;4767972;30;20687;-69
2022/07/14 03:56:01;;;;;;;6.27;3.70;;;;;;;20.07;49.24;97432.53;4767382;30;20218;-69
2022/07/14 03:58:37;;;;;;;5.80;2.50;;;;;;;20.92;46.67;97426.59;4767812;29;20246;-69
2022/07/14 04:01:05;;;;;;;4.73;3.10;;;;;;;21.16;46.75;97429.91;4767683;30;20662;-70
2022/07/14 04:03:33;;;;;;;5.67;3.00;;;;;;;20.49;48.90;97425.72;4767518;30;20618;-69
2022/07/14 04:06:00;;;;;;;6.87;2.90;;;;;;;20.45;49.15;97433.03;4767601;30;20207;-69
2022/07/14 04:08:27;;;;;;;7.93;2.60;;;;;;;20.22;49.83;97436.63;4767004;30;20272;-69
2022/07/14 04:10:59;;;;;;;8.40;3.10;;;;;;;20.23;50.14;97440.94;4767546;29;20202;-68
2022/07/14 04:13:26;;;;;;;17.20;3.50;;;;;;;20.07;50.38;97443.88;4754840;29;20231;-69
2022/07/14 04:15:53;;;;;;;5.73;3.63;;;;;;;20.24;49.08;97438.19;4790483;29;20371;-69
2022/07/14 04:18:20;;;;;;;11.20;3.60;;;;;;;20.13;49.54;97443.41;4803377;29;20213;-69
2022/07/14 04:20:50;;;;;;;5.67;3.07;;;;;;;20.09;49.81;97441.16;4803006;29;20194;-69
2022/07/14 04:23:20;;;;;;;4.80;2.73;;;;;;;20.03;49.78;97449.50;4803606;29;20208;-68
2022/07/14 04:25:49;;;;;;;6.07;3.20;;;;;;;20.28;49.42;97451.94;4802992;29;20206;-69
2022/07/14 04:28:16;;;;;;;6.03;2.93;;;;;;;20.63;48.58;97457.06;4803373;29;20224;-69
2022/07/14 04:30:45;;;;;;;7.63;3.10;;;;;;;21.02;48.36;97449.47;4802563;29;20750;-69
2022/07/14 04:33:12;;;;;;;3.97;2.57;;;;;;;20.71;48.31;97447.59;4802407;29;20729;-70
2022/07/14 04:35:43;;;;;;;2.80;2.10;;;;;;;20.43;49.24;97449.88;4802814;29;20262;-69
2022/07/14 04:38:10;;;;;;;9.47;2.57;;;;;;;20.37;49.74;97451.22;4802587;29;20786;-70
2022/07/14 04:40:51;;;;;;;4.50;2.30;;;;;;;20.72;48.76;97449.28;4802870;29;20223;-70
2022/07/14 04:43:19;;;;;;;2.90;2.23;;;;;;;20.71;48.65;97450.22;4787761;29;20663;-69
2022/07/14 04:45:49;;;;;;;5.93;2.10;;;;;;;20.68;48.16;97436.47;4802449;29;20270;-71
2022/07/14 04:48:16;;;;;;;3.90;1.83;;;;;;;20.74;48.10;97439.47;4802368;29;20310;-70
2022/07/14 04:53:43;;;;;;;5.33;2.50;;;;;;;21.97;46.31;97451.19;4778940;29;20255;-69
2022/07/14 04:56:31;;;;;;;5.80;2.17;;;;;;;22.57;45.12;97453.84;4817261;29;20183;-69
2022/07/14 04:59:18;;;;;;;4.90;1.93;;;;;;;22.77;43.51;97451.28;4802406;29;20605;-69
2022/07/14 05:01:46;;;;;;;3.83;1.83;;;;;;;22.92;44.36;97448.13;4802495;29;20208;-70
2022/07/14 05:04:13;;;;;;;4.00;2.10;;;;;;;23.33;43.53;97453.22;4816955;29;20662;-69
2022/07/14 05:06:41;;;;;;;3.40;2.00;;;;;;;23.49;41.97;97436.81;4802207;29;20214;-70
2022/07/14 05:09:08;;;;;;;9.50;2.03;;;;;;;23.65;41.79;97445.00;4802001;29;20274;-70
2022/07/14 05:11:37;;;;;;;5.60;2.10;;;;;;;23.80;40.45;97456.78;4801825;29;20214;-70
2022/07/14 05:14:05;;;;;;;4.87;2.03;;;;;;;24.05;41.03;97432.41;4801857;29;20595;-70
2022/07/14 05:16:32;;;;;;;3.13;2.00;;;;;;;24.30;40.21;97448.66;4801721;29;20256;-70
2022/07/14 05:19:20;;;;;;;3.97;2.17;;;;;;;24.32;40.82;97452.81;4802260;29;20206;-71
2022/07/14 05:21:48;;;;;;;4.80;1.73;;;;;;;24.71;40.24;97456.16;4817144;29;20201;-69
2022/07/14 05:24:17;;;;;;;5.43;2.23;;;;;;;24.93;40.62;97453.97;4802128;29;20211;-70
2022/07/14 05:26:44;;;;;;;12.37;2.80;;;;;;;25.20;39.07;97453.09;4801946;29;20303;-70
2022/07/14 05:29:17;;;;;;;30.53;5.20;;;;;;;25.39;39.86;97450.25;4801862;29;20216;-70
2022/07/14 05:31:44;;;;;;;5.67;2.37;;;;;;;25.50;38.13;97447.44;4801603;29;20205;-72
2022/07/14 05:34:12;;;;;;;6.17;2.20;;;;;;;25.65;37.94;97453.88;4786700;29;20205;-69
2022/07/14 05:36:39;;;;;;;8.03;3.77;;;;;;;25.74;38.15;97454.75;4801933;29;20208;-69
2022/07/14 05:39:06;;;;;;;3.93;2.60;;;;;;;25.81;38.58;97455.81;4816808;29;20208;-69
2022/07/14 05:41:34;;;;;;;6.30;3.03;;;;;;;25.79;39.47;97448.00;4801415;29;20297;-70
2022/07/14 05:44:01;;;;;;;10.97;3.53;;;;;;;25.91;40.45;97445.91;4786172;29;20598;-70
2022/07/14 05:46:28;;;;;;;9.50;3.67;;;;;;;26.03;40.72;97455.28;4786017;29;20211;-69
2022/07/14 05:48:56;;;;;;;8.67;4.23;;;;;;;25.97;40.83;97457.72;4801701;29;20201;-69
2022/07/14 05:51:23;;;;;;;10.40;5.40;;;;;;;26.12;40.98;97450.91;4801256;29;20216;-69
2022/07/14 05:53:53;;;;;;;6.53;4.37;;;;;;;26.23;40.38;97453.31;4801708;29;20243;-69
2022/07/14 05:56:23;;;;;;;9.93;3.30;;;;;;;26.30;39.66;97459.63;4801060;29;20206;-69
2022/07/14 05:58:50;;;;;;;4.20;2.70;;;;;;;26.25;38.27;97454.81;4802263;29;20578;-70
2022/07/14 06:01:18;;;;;;;4.90;2.67;;;;;;;26.52;37.81;97451.16;4807161;29;20246;-69
2022/07/14 06:03:53;;;;;;;10.13;2.97;;;;;;;26.42;37.70;97461.06;4823652;29;20221;-70
2022/07/14 06:06:21;;;;;;;15.50;3.57;;;;;;;26.32;37.02;97455.00;4807297;29;20209;-71
2022/07/14 06:08:48;;;;;;;9.97;2.50;;;;;;;26.28;37.64;97454.50;4806785;29;20205;-72
2022/07/14 06:11:16;;;;;;;11.77;3.60;;;;;;;26.44;37.21;97451.13;4823737;29;20258;-69
2022/07/14 06:13:45;;;;;;;5.13;2.90;;;;;;;26.62;36.38;97462.50;4806649;29;20298;-69
2022/07/14 06:16:14;;;;;;;4.83;2.60;;;;;;;26.66;36.28;97453.19;4806809;29;20267;-70
2022/07/14 06:18:42;;;;;;;5.50;3.30;;;;;;;26.88;36.53;97446.50;4806647;29;20206;-69
2022/07/14 06:21:10;;;;;;;5.30;3.00;;;;;;;27.04;36.26;97457.16;4806775;29;20212;-70
2022/07/14 06:23:37;;;;;;;4.67;3.10;;;;;;;27.06;35.75;97456.03;4807062;29;20537;-69
2022/07/14 06:26:11;;;;;;;6.30;2.53;;;;;;;27.12;35.63;97452.72;4806408;29;20686;-70
2022/07/14 06:28:41;;;;;;;5.90;2.83;;;;;;;27.08;35.25;97443.38;4807085;29;20206;-69
2022/07/14 06:31:09;;;;;;;5.63;2.50;;;;;;;27.29;34.90;97445.59;4823522;29;20237;-70
2022/07/14 06:33:36;;;;;;;8.37;2.73;;;;;;;27.45;35.17;97445.66;4806893;29;20248;-69
2022/07/14 06:36:23;;;;;;;6.73;3.17;;;;;;;27.57;34.49;97447.00;4822821;29;20733;-70
2022/07/14 06:38:50;;;;;;;6.77;2.53;;;;;;;27.76;34.57;97437.88;4806606;29;20896;-70
2022/07/14 06:41:22;;;;;;;4.73;3.10;;;;;;;27.69;34.10;97436.84;4806921;29;20228;-71
2022/07/14 06:43:50;;;;;;;4.27;2.13;;;;;;;27.78;33.66;97446.50;4806613;29;20244;-70
2022/07/14 06:46:17;;;;;;;4.67;2.07;;;;;;;27.81;33.48;97443.50;4822946;29;20212;-70
2022/07/14 06:48:45;;;;;;;4.27;3.00;;;;;;;27.90;33.61;97435.31;4806502;29;20213;-70
2022/07/14 06:51:13;;;;;;;6.33;2.50;;;;;;;27.92;33.01;97438.69;4823038;29;20210;-71
2022/07/14 06:53:42;;;;;;;4.97;2.10;;;;;;;27.88;33.26;97441.84;4806790;29;20284;-70
2022/07/14 06:56:09;;;;;;;6.87;2.80;;;;;;;27.77;33.70;97429.69;4822681;29;20213;-70
2022/07/14 06:58:36;;;;;;;9.20;2.33;;;;;;;28.05;33.03;97430.19;4823240;29;20274;-70
2022/07/14 07:01:03;;;;;;;5.33;2.60;;;;;;;28.05;32.68;97432.84;4822917;29;20292;-70
2022/07/14 07:03:31;;;;;;;6.30;2.30;;;;;;;28.05;33.28;97431.03;4822513;29;20198;-69
2022/07/14 07:08:44;;;;;;;5.80;2.03;;;;;;;27.89;31.88;97433.69;4822613;29;20206;-69
2022/07/14 07:11:11;;;;;;;3.80;1.60;;;;;;;27.97;31.90;97435.53;4820636;29;20593;-69
2022/07/14 07:13:39;;;;;;;3.20;1.57;;;;;;;28.11;31.50;97427.69;4819223;29;20725;-69
2022/07/14 07:16:07;;;;;;;5.90;1.70;;;;;;;28.31;31.42;97424.66;4819709;29;20245;-70
2022/07/14 07:18:35;;;;;;;1.50;1.37;;;;;;;28.03;30.58;97414.38;4803313;29;20198;-70
2022/07/14 07:21:04;;;;;;;5.07;1.43;;;;;;;27.93;30.31;97419.03;4819685;29;20617;-70
2022/07/14 07:23:32;;;;;;;2.73;1.40;;;;;;;27.92;30.30;97416.53;4819965;29;20233;-70
2022/07/14 07:25:59;;;;;;;3.43;1.30;;;;;;;27.87;30.73;97410.88;4819178;29;20212;-70
2022/07/14 07:28:26;;;;;;;2.60;1.80;;;;;;;28.21;30.21;97410.69;4819506;29;20270;-70
2022/07/14 07:30:53;;;;;;;3.40;1.40;;;;;;;28.10;30.34;97418.03;4803224;29;20276;-70
2022/07/14 07:33:20;;;;;;;2.20;1.17;;;;;;;27.94;30.20;97409.22;4803351;29;20237;-70
2022/07/14 07:35:47;;;;;;;4.97;1.73;;;;;;;27.80;30.19;97401.91;4802691;29;20233;-70
2022/07/14 07:38:14;;;;;;;1.80;1.37;;;;;;;27.92;29.87;97400.56;4819154;29;20202;-70
2022/07/14 07:40:41;;;;;;;3.20;1.20;;;;;;;28.18;29.87;97401.19;4819346;29;20678;-70
2022/07/14 07:43:09;;;;;;;2.60;1.50;;;;;;;28.25;30.88;97398.69;4819410;29;20214;-70
2022/07/14 07:45:36;;;;;;;2.67;1.30;;;;;;;28.36;30.05;97393.81;4819764;29;20213;-70
2022/07/14 07:48:04;;;;;;;2.90;1.30;;;;;;;28.35;29.26;97400.16;4819602;29;20583;-70
2022/07/14 07:50:32;;;;;;;2.77;1.50;;;;;;;28.35;29.25;97386.84;4819715;29;20210;-70
2022/07/14 07:52:59;;;;;;;2.27;1.00;;;;;;;28.32;29.42;97376.50;4819215;29;20218;-70
2022/07/14 07:55:26;;;;;;;3.53;1.20;;;;;;;28.36;28.54;97390.34;4819696;29;20237;-70
2022/07/14 07:57:54;;;;;;;5.57;1.40;;;;;;;28.43;28.75;97386.81;4819103;29;20297;-72
2022/07/14 08:00:22;;;;;;;5.47;1.67;;;;;;;28.66;28.76;97377.09;4819370;29;20222;-69
2022/07/14 08:02:53;;;;;;;2.53;1.33;;;;;;;28.81;28.32;97372.66;4820189;29;20305;-69
2022/07/14 08:05:26;;;;;;;1.50;1.30;;;;;;;28.54;28.83;97380.28;4818779;29;20201;-69
2022/07/14 08:08:12;;;;;;;2.17;1.30;;;;;;;28.44;28.76;97364.47;4819930;29;20682;-69
2022/07/14 08:10:39;;;;;;;2.27;1.30;;;;;;;28.50;29.13;97376.28;4819818;29;20210;-69
2022/07/14 08:13:08;;;;;;;2.77;1.27;;;;;;;28.55;28.67;97380.09;4820225;29;20652;-70
2022/07/14 08:15:36;;;;;;;1.73;1.07;;;;;;;28.65;28.89;97383.41;4820053;29;20247;-70
2022/07/14 08:18:04;;;;;;;2.33;1.00;;;;;;;28.55;28.66;97376.59;4820626;29;20669;-70
2022/07/14 08:20:33;;;;;;;1.63;0.90;;;;;;;28.17;28.35;97351.59;4805312;29;20207;-69
2022/07/14 08:23:00;;;;;;;1.43;1.10;;;;;;;28.18;28.96;97367.41;4805817;29;20785;-69
2022/07/14 08:25:28;;;;;;;2.40;1.10;;;;;;;28.20;29.14;97361.91;4821401;29;20723;-70
2022/07/14 08:27:55;;;;;;;1.77;1.67;;;;;;;28.25;29.58;97375.56;4819473;29;20204;-70
2022/07/14 08:30:22;;;;;;;2.80;2.07;;;;;;;28.18;29.69;97370.06;4819404;29;20266;-70
2022/07/14 08:32:51;;;;;;;2.57;1.70;;;;;;;28.19;29.89;97360.25;4819650;29;20230;-70
2022/07/14 08:35:21;;;;;;;5.93;1.90;;;;;;;28.52;29.75;97337.78;4818426;29;20231;-70
2022/07/14 08:37:49;;;;;;;10.87;4.10;;;;;;;28.48;29.49;97370.31;4818722;29;20565;-69
2022/07/14 08:40:19;;;;;;;5.83;2.10;;;;;;;28.71;29.42;97361.38;4802085;29;20201;-70
2022/07/14 08:42:50;;;;;;;4.03;1.60;;;;;;;28.79;29.17;97374.66;4818306;29;20561;-70
2022/07/14 08:45:19;;;;;;;3.47;1.80;;;;;;;29.11;28.52;97372.81;4818463;29;20621;-69
2022/07/14 08:47:47;;;;;;;3.13;1.20;;;;;;;28.87;29.39;97374.59;4818124;29;20218;-69
2022/07/14 08:50:18;;;;;;;4.73;1.73;;;;;;;29.12;28.83;97369.94;4801730;29;20213;-70
2022/07/14 08:52:46;;;;;;;5.03;1.63;;;;;;;29.22;28.88;97369.75;4817915;29;20329;-70
2022/07/14 08:55:15;;;;;;;2.33;1.40;;;;;;;29.20;28.65;97351.28;4817198;29;20254;-71
2022/07/14 08:57:43;;;;;;;5.30;1.50;;;;;;;29.18;28.59;97369.25;4801743;29;20277;-70
2022/07/14 09:00:13;;;;;;;2.70;1.40;;;;;;;28.83;29.06;97375.97;4818033;29;20261;-70
2022/07/14 09:02:50;;;;;;;2.70;1.30;;;;;;;28.17;29.70;97367.59;4816928;29;20229;-70
2022/07/14 09:05:39;;;;;;;2.67;1.13;;;;;;;28.45;29.81;97357.31;4801354;29;20202;-70
2022/07/14 09:08:07;;;;;;;3.40;1.83;;;;;;;28.93;28.65;97357.91;4801416;29;20206;-71
2022/07/14 09:10:34;;;;;;;2.97;1.77;;;;;;;29.10;28.71;97360.47;4817721;29;20213;-70
2022/07/14 09:13:22;;;;;;;4.10;1.90;;;;;;;28.66;29.53;97373.56;4817913;29;20244;-69
2022/07/14 09:16:13;;;;;;;3.77;2.03;;;;;;;28.37;29.60;97347.53;4801367;29;20202;-69
2022/07/14 09:18:41;;;;;;;2.33;1.47;;;;;;;28.50;30.03;97355.78;4817560;29;20247;-69
2022/07/14 09:21:21;;;;;;;3.13;1.90;;;;;;;28.74;29.73;97366.38;4817629;29;20613;-69
2022/07/14 09:23:48;;;;;;;6.67;3.67;;;;;;;28.49;29.80;97356.78;4818073;29;20206;-70
2022/07/14 09:26:17;;;;;;;3.40;1.50;;;;;;;28.83;29.18;97349.28;4817785;29;20781;-69
2022/07/14 09:28:48;;;;;;;2.30;1.40;;;;;;;29.14;28.80;97343.91;4801764;29;20209;-70
2022/07/14 09:31:24;;;;;;;6.47;2.17;;;;;;;29.44;28.39;97347.56;4817445;29;20213;-70
2022/07/14 09:33:57;;;;;;;6.23;2.50;;;;;;;29.43;28.47;97345.91;4817260;29;20821;-70
2022/07/14 09:36:30;;;;;;;4.73;2.40;;;;;;;29.65;29.01;97353.88;4817666;29;20194;-72
2022/07/14 09:39:12;;;;;;;1.67;1.20;;;;;;;29.58;28.04;97350.28;4817594;29;20198;-69
2022/07/14 09:41:53;;;;;;;3.03;1.90;;;;;;;29.54;28.27;97338.28;4817835;29;20210;-71
2022/07/14 09:44:21;;;;;;;2.53;1.30;;;;;;;29.25;27.89;97332.03;4817770;29;20210;-71
2022/07/14 09:46:56;;;;;;;2.53;1.20;;;;;;;29.25;28.52;97337.38;4817813;29;20206;-69
2022/07/14 09:49:30;;;;;;;3.00;1.40;;;;;;;29.01;29.03;97341.03;4801085;29;20250;-69
2022/07/14 09:52:02;;;;;;;1.37;1.27;;;;;;;28.62;29.20;97342.94;4817336;29;20214;-69
2022/07/14 09:54:43;;;;;;;1.20;1.10;;;;;;;28.50;29.56;97337.13;4817270;29;20238;-69
2022/07/14 09:57:13;;;;;;;2.00;1.40;;;;;;;28.65;29.13;97339.91;4816947;29;20308;-70
2022/07/14 09:59:49;;;;;;;1.90;1.40;;;;;;;28.60;30.05;97331.63;4817895;29;20202;-69
2022/07/14 10:02:29;;;;;;;2.87;1.30;;;;;;;28.74;29.25;97318.38;4817223;29;20590;-70
2022/07/14 10:05:08;;;;;;;1.50;1.07;;;;;;;27.99;30.92;97313.69;4817036;29;20214;-70
2022/07/14 10:07:43;;;;;;;4.67;2.73;;;;;;;28.15;30.35;97332.31;4801537;29;20209;-70
2022/07/14 10:10:12;;;;;;;4.00;1.63;;;;;;;28.46;29.64;97327.81;4817062;29;20288;-69
2022/07/14 10:12:42;;;;;;;1.60;1.10;;;;;;;28.70;29.41;97333.06;4800787;29;20208;-70
2022/07/14 10:15:11;;;;;;;3.07;1.20;;;;;;;28.75;29.27;97320.03;4816959;29;20337;-70
2022/07/14 10:17:41;;;;;;;3.73;1.20;;;;;;;28.75;29.49;97311.19;4800465;29;20234;-69
2022/07/14 10:20:11;;;;;;;1.40;1.30;;;;;;;29.10;28.99;97312.47;4817113;29;20274;-69
2022/07/14 10:22:40;;;;;;;4.57;2.00;;;;;;;29.53;29.03;97317.94;4816771;29;20214;-70
2022/07/14 10:25:09;;;;;;;2.60;1.20;;;;;;;29.38;28.70;97326.94;4817192;29;20220;-69
2022/07/14 10:27:46;;;;;;;1.97;1.20;;;;;;;28.83;28.94;97314.63;4816991;29;20204;-69
2022/07/14 10:30:17;;;;;;;2.70;1.30;;;;;;;28.74;29.73;97305.03;4816922;29;20208;-70
2022/07/14 10:32:56;;;;;;;3.37;1.30;;;;;;;28.89;29.00;97315.78;4817136;29;20234;-70
2022/07/14 10:35:31;;;;;;;2.80;1.90;;;;;;;29.01;28.45;97309.03;4800900;29;20262;-70
2022/07/14 10:38:25;;;;;;;1.30;1.00;;;;;;;28.91;29.16;97311.91;4817472;29;20305;-69
2022/07/14 10:41:17;;;;;;;2.00;1.33;;;;;;;28.83;29.34;97306.63;4816796;29;20206;-69
2022/07/14 10:44:07;;;;;;;2.17;1.10;;;;;;;28.78;29.49;97303.69;4817198;29;20266;-69
2022/07/14 10:46:46;;;;;;;2.90;1.20;;;;;;;28.96;29.22;97306.88;4819975;29;20202;-69
2022/07/14 10:49:15;;;;;;;2.53;1.00;;;;;;;29.29;28.43;97309.31;4820754;29;20285;-70
2022/07/14 10:51:51;;;;;;;4.70;1.73;;;;;;;29.62;28.13;97303.50;4820190;29;20198;-70
2022/07/14 10:54:30;;;;;;;2.03;1.30;;;;;;;30.06;27.68;97297.38;4820316;29;20233;-69
2022/07/14 10:57:12;;;;;;;2.00;1.40;;;;;;;30.15;27.90;97298.97;4819929;29;20223;-70
2022/07/14 10:59:41;;;;;;;4.10;1.70;;;;;;;30.09;28.03;97292.50;4820377;29;20222;-70
2022/07/14 11:02:14;;;;;;;3.60;2.13;;;;;;;30.34;28.44;97291.22;4819950;29;20238;-69
2022/07/14 11:04:59;;;;;;;7.03;1.90;;;;;;;30.57;27.05;97292.91;4819964;29;20238;-70
2022/07/14 11:07:40;;;;;;;2.10;1.50;;;;;;;30.72;27.06;97296.38;4820028;29;20651;-71
2022/07/14 11:10:19;;;;;;;1.50;1.33;;;;;;;30.86;26.58;97290.19;4820000;29;20697;-71
2022/07/14 11:13:04;;;;;;;2.90;1.80;;;;;;;30.93;27.24;97293.75;4820150;29;20349;-70
2022/07/14 11:15:36;;;;;;;2.00;1.50;;;;;;;30.96;27.19;97283.50;4819765;29;20205;-70
2022/07/14 11:18:21;;;;;;;1.97;1.50;;;;;;;30.73;27.97;97285.47;4800808;29;20238;-70
2022/07/14 11:21:19;;;;;;;1.63;1.27;;;;;;;29.96;28.21;97286.16;4802574;29;20217;-71
2022/07/14 11:23:46;;;;;;;5.13;1.50;;;;;;;29.61;28.31;97279.66;4800680;29;20202;-70
2022/07/14 11:26:31;;;;;;;4.03;2.40;;;;;;;29.62;29.00;97286.66;4802007;29;20213;-70
2022/07/14 11:29:00;;;;;;;5.50;1.67;;;;;;;29.65;29.23;97286.31;4802064;29;20688;-70
2022/07/14 11:31:27;;;;;;;2.90;1.70;;;;;;;29.89;28.12;97278.03;4801289;29;20214;-70
2022/07/14 11:37:00;;;;;;;4.50;1.87;;;;;;;30.29;28.97;97280.28;4801342;29;20239;-69
2022/07/14 11:39:47;;;;;;;3.63;1.40;;;;;;;30.21;28.91;97274.97;4801301;29;20198;-71
2022/07/14 11:42:16;;;;;;;2.47;1.30;;;;;;;30.38;28.78;97280.97;4800194;29;20225;-71
2022/07/14 11:44:45;;;;;;;4.80;1.50;;;;;;;30.13;28.57;97275.06;4801296;29;20409;-71
2022/07/14 11:47:21;;;;;;;2.87;1.50;;;;;;;29.92;29.33;97272.34;4801576;29;20203;-70
2022/07/14 11:49:54;;;;;;;2.83;1.77;;;;;;;29.77;29.31;97258.16;4801466;29;20204;-70
2022/07/14 11:52:40;;;;;;;3.80;1.60;;;;;;;29.94;28.95;97243.59;4801160;29;20213;-70
2022/07/14 11:55:12;;;;;;;3.17;1.40;;;;;;;30.30;28.88;97255.19;4801318;29;20245;-70
2022/07/14 11:57:50;;;;;;;2.37;2.00;;;;;;;30.59;27.75;97258.78;4800000;29;20217;-70
2022/07/14 12:00:17;;;;;;;2.80;1.47;;;;;;;30.68;27.39;97258.50;4801414;29;20220;-70
2022/07/14 12:02:52;;;;;;;2.50;1.70;;;;;;;30.94;28.13;97255.28;4801300;29;20218;-71